createdAt,value
2018-03-04T00:01:19.849Z,20.07
2018-03-04T00:03:48.292Z,20.07
2018-03-04T00:06:16.631Z,20.27
2018-03-04T00:08:45.752Z,21.23
2018-03-04T00:11:14.113Z,21.07
2018-03-04T00:13:42.461Z,20.57
2018-03-04T00:16:10.820Z,21.67
2018-03-04T00:18:39.163Z,21.07
2018-03-04T00:21:07.544Z,21.57
2018-03-04T00:23:35.887Z,20.93
2018-03-04T00:26:05.041Z,22.63
2018-03-04T00:28:33.386Z,21.33
2018-03-04T00:31:01.733Z,20.47
2018-03-04T00:33:30.091Z,20.43
2018-03-04T00:35:58.557Z,20.47
2018-03-04T00:38:26.920Z,21.63
2018-03-04T00:40:55.314Z,21.40
2018-03-04T00:43:23.778Z,22.13
2018-03-04T00:45:52.208Z,21.33
2018-03-04T00:48:20.556Z,21.37
2018-03-04T00:50:48.908Z,21.03
2018-03-04T00:53:17.258Z,21.47
2018-03-04T00:55:45.804Z,22.03
2018-03-04T00:58:14.156Z,21.07
2018-03-04T01:00:42.519Z,21.40
2018-03-04T01:03:10.876Z,21.43
2018-03-04T01:05:40.005Z,23.67
2018-03-04T01:08:08.433Z,20.93
2018-03-04T01:10:36.792Z,20.87
2018-03-04T01:13:05.174Z,22.60
2018-03-04T01:15:33.520Z,23.07
2018-03-04T01:18:02.115Z,22.00
2018-03-04T01:20:30.493Z,22.43
2018-03-04T01:22:58.847Z,24.27
2018-03-04T01:25:27.967Z,21.33
2018-03-04T01:27:56.318Z,22.43
2018-03-04T01:30:25.448Z,24.50
2018-03-04T01:32:53.786Z,23.23
2018-03-04T01:35:22.137Z,21.23
2018-03-04T01:37:50.483Z,24.13
2018-03-04T01:40:18.864Z,23.63
2018-03-04T01:42:47.227Z,22.83
2018-03-04T01:45:15.579Z,23.10
2018-03-04T01:47:44.733Z,22.77
2018-03-04T01:50:13.138Z,22.90
2018-03-04T01:52:41.579Z,23.57
2018-03-04T01:55:09.959Z,22.20
2018-03-04T01:57:38.300Z,21.27
2018-03-04T02:00:07.415Z,23.73
2018-03-04T02:02:35.771Z,24.23
2018-03-04T02:05:04.903Z,23.03
2018-03-04T02:07:33.248Z,23.63
2018-03-04T02:10:02.364Z,24.63
2018-03-04T02:12:31.487Z,24.33
2018-03-04T02:14:59.835Z,24.10
2018-03-04T02:17:28.196Z,22.67
2018-03-04T02:19:56.544Z,25.20
2018-03-04T02:22:24.948Z,24.53
2018-03-04T02:24:53.306Z,24.03
2018-03-04T02:27:21.725Z,23.83
2018-03-04T02:29:50.072Z,24.30
2018-03-04T02:32:18.422Z,25.37
2018-03-04T02:34:46.778Z,24.33
2018-03-04T02:37:15.121Z,25.37
2018-03-04T02:39:43.489Z,24.00
2018-03-04T02:42:11.836Z,24.47
2018-03-04T02:44:40.213Z,23.70
2018-03-04T02:47:08.584Z,24.63
2018-03-04T02:49:37.030Z,25.63
2018-03-04T02:52:06.272Z,23.30
2018-03-04T02:54:34.625Z,22.97
2018-03-04T02:57:03.004Z,23.50
2018-03-04T02:59:31.460Z,26.63
2018-03-04T03:02:00.576Z,24.47
2018-03-04T03:04:29.709Z,24.47
2018-03-04T03:06:58.158Z,24.60
2018-03-04T03:09:27.284Z,25.40
2018-03-04T03:11:55.742Z,25.57
2018-03-04T03:14:24.137Z,25.40
2018-03-04T03:16:52.507Z,26.40
2018-03-04T03:19:20.898Z,25.13
2018-03-04T03:21:49.261Z,26.03
2018-03-04T03:24:17.654Z,26.00
2018-03-04T03:26:46.022Z,26.40
2018-03-04T03:29:15.189Z,26.17
2018-03-04T03:31:44.156Z,26.60
2018-03-04T03:34:12.494Z,28.37
2018-03-04T03:36:40.889Z,27.63
2018-03-04T03:39:09.258Z,26.40
2018-03-04T03:41:37.656Z,27.53
2018-03-04T03:44:06.189Z,29.37
2018-03-04T03:46:34.535Z,28.10
2018-03-04T03:49:02.913Z,27.43
2018-03-04T03:51:31.270Z,28.00
2018-03-04T03:53:59.635Z,29.30
2018-03-04T03:56:27.988Z,26.87
2018-03-04T03:58:57.866Z,27.97
2018-03-04T04:01:26.214Z,28.43
2018-03-04T04:03:54.565Z,28.60
2018-03-04T04:06:23.679Z,28.73
2018-03-04T04:08:52.115Z,28.27
2018-03-04T04:11:20.508Z,28.47
2018-03-04T04:13:49.820Z,27.03
2018-03-04T04:16:18.238Z,28.97
2018-03-04T04:18:46.599Z,29.70
2018-03-04T04:21:14.985Z,29.90
2018-03-04T04:23:43.363Z,29.50
2018-03-04T04:26:11.717Z,29.23
2018-03-04T04:28:40.890Z,29.13
2018-03-04T04:31:09.199Z,31.10
2018-03-04T04:33:37.553Z,30.27
2018-03-04T04:36:06.042Z,31.07
2018-03-04T04:38:34.415Z,30.50
2018-03-04T04:41:02.765Z,29.77
2018-03-04T04:43:31.114Z,30.10
2018-03-04T04:45:59.488Z,31.60
2018-03-04T04:48:27.836Z,30.27
2018-03-04T04:50:56.958Z,30.00
2018-03-04T04:53:25.312Z,28.97
2018-03-04T04:55:54.420Z,31.57
2018-03-04T04:58:22.788Z,30.70
2018-03-04T05:00:51.920Z,30.00
2018-03-04T05:03:20.285Z,30.73
2018-03-04T05:05:48.667Z,31.23
2018-03-04T05:08:17.032Z,30.80
2018-03-04T05:10:46.256Z,31.73
2018-03-04T05:13:14.623Z,29.97
2018-03-04T05:15:43.017Z,32.27
2018-03-04T05:18:11.373Z,32.40
2018-03-04T05:20:40.560Z,31.77
2018-03-04T05:23:09.664Z,32.17
2018-03-04T05:25:38.023Z,31.57
2018-03-04T05:28:06.373Z,30.30
2018-03-04T05:30:34.733Z,30.70
2018-03-04T05:33:03.110Z,31.13
2018-03-04T05:35:31.608Z,30.10
2018-03-04T05:37:59.986Z,31.30
2018-03-04T05:40:28.358Z,29.70
2018-03-04T05:42:56.723Z,32.23
2018-03-04T05:45:25.086Z,32.37
2018-03-04T05:47:53.429Z,31.87
2018-03-04T05:50:21.792Z,31.47
2018-03-04T05:52:50.232Z,33.40
2018-03-04T05:55:18.596Z,32.57
2018-03-04T05:57:47.114Z,30.27
2018-03-04T06:00:15.442Z,32.23
2018-03-04T06:02:43.794Z,33.07
2018-03-04T06:05:12.135Z,31.23
2018-03-04T06:07:40.499Z,32.43
2018-03-04T06:10:08.844Z,33.13
2018-03-04T06:12:37.288Z,33.67
2018-03-04T06:15:05.673Z,32.23
2018-03-04T06:17:34.012Z,32.87
2018-03-04T06:20:03.132Z,34.50
2018-03-04T06:22:31.509Z,31.80
2018-03-04T06:24:59.851Z,32.57
2018-03-04T06:27:28.976Z,33.53
2018-03-04T06:29:57.352Z,33.23
2018-03-04T06:32:25.675Z,32.90
2018-03-04T06:34:54.022Z,32.87
2018-03-04T06:37:22.376Z,31.60
2018-03-04T06:39:50.724Z,30.97
2018-03-04T06:42:19.084Z,34.07
2018-03-04T06:44:47.547Z,35.67
2018-03-04T06:47:15.916Z,33.70
2018-03-04T06:49:44.419Z,32.53
2018-03-04T06:52:12.771Z,32.20
2018-03-04T06:54:41.144Z,31.53
2018-03-04T06:57:10.037Z,31.97
2018-03-04T06:59:38.389Z,32.43
2018-03-04T07:02:07.510Z,32.67
2018-03-04T07:04:35.918Z,30.87
2018-03-04T07:07:04.251Z,30.13
2018-03-04T07:09:32.624Z,32.07
2018-03-04T07:12:01.770Z,33.33
2018-03-04T07:14:30.133Z,33.53
2018-03-04T07:16:58.540Z,32.83
2018-03-04T07:19:26.872Z,31.80
2018-03-04T07:21:56.001Z,35.97
2018-03-04T07:24:24.436Z,34.37
2018-03-04T07:26:52.821Z,34.17
2018-03-04T07:29:21.944Z,34.70
2018-03-04T07:31:51.245Z,34.07
2018-03-04T07:34:19.604Z,34.27
2018-03-04T07:36:47.960Z,35.57
2018-03-04T07:39:16.320Z,33.97
2018-03-04T07:41:44.752Z,36.47
2018-03-04T07:44:14.076Z,35.33
2018-03-04T07:46:42.604Z,35.00
2018-03-04T07:49:10.949Z,34.13
2018-03-04T07:51:39.312Z,33.53
2018-03-04T07:54:07.663Z,33.03
2018-03-04T07:56:36.858Z,34.97
2018-03-04T07:59:05.965Z,34.60
2018-03-04T08:01:34.305Z,31.77
2018-03-04T08:04:02.753Z,33.67
2018-03-04T08:06:31.122Z,33.43
2018-03-04T08:08:59.512Z,34.83
2018-03-04T08:11:28.023Z,32.50
2018-03-04T08:13:56.335Z,33.10
2018-03-04T08:16:24.675Z,32.90
2018-03-04T08:18:53.024Z,31.17
2018-03-04T08:21:21.401Z,32.13
2018-03-04T08:23:49.749Z,33.57
2018-03-04T08:26:30.732Z,34.60
2018-03-04T08:28:59.081Z,34.70
2018-03-04T08:31:27.485Z,32.30
2018-03-04T08:33:56.592Z,32.97
2018-03-04T08:36:25.079Z,34.07
2018-03-04T08:38:53.425Z,34.20
2018-03-04T08:41:22.705Z,32.47
2018-03-04T08:43:51.150Z,32.73
2018-03-04T08:46:19.556Z,33.30
2018-03-04T08:48:47.896Z,34.17
2018-03-04T08:51:16.239Z,32.57
2018-03-04T08:53:45.384Z,33.33
2018-03-04T08:56:13.738Z,32.50
2018-03-04T08:58:42.365Z,33.40
2018-03-04T09:01:11.427Z,32.80
2018-03-04T09:03:39.843Z,33.17
2018-03-04T09:06:08.181Z,32.60
2018-03-04T09:08:36.551Z,31.47
2018-03-04T09:11:04.888Z,32.27
2018-03-04T09:13:33.229Z,32.53
2018-03-04T09:16:01.618Z,33.77
2018-03-04T09:18:29.981Z,32.33
2018-03-04T09:20:58.321Z,34.27
2018-03-04T09:23:26.671Z,35.37
2018-03-04T09:25:55.032Z,32.40
2018-03-04T09:28:23.396Z,33.57
2018-03-04T09:30:51.749Z,32.73
2018-03-04T09:33:20.870Z,33.57
2018-03-04T09:35:49.237Z,33.37
2018-03-04T09:38:18.340Z,35.13
2018-03-04T09:40:46.710Z,34.00
2018-03-04T09:43:15.836Z,35.83
2018-03-04T09:45:44.182Z,35.50
2018-03-04T09:48:13.314Z,34.43
2018-03-04T09:50:41.706Z,35.10
2018-03-04T09:53:10.040Z,34.30
2018-03-04T09:55:38.391Z,34.50
2018-03-04T09:58:06.749Z,37.83
2018-03-04T10:00:35.112Z,40.20
2018-03-04T10:03:03.581Z,35.07
2018-03-04T10:05:31.951Z,35.03
2018-03-04T10:08:00.293Z,35.67
2018-03-04T10:10:28.641Z,37.47
2018-03-04T10:12:57.016Z,37.40
2018-03-04T10:15:25.376Z,36.13
2018-03-04T10:17:53.712Z,35.97
2018-03-04T10:20:22.872Z,34.67
2018-03-04T10:22:51.946Z,35.23
2018-03-04T10:25:20.385Z,34.27
2018-03-04T10:27:48.807Z,35.30
2018-03-04T10:30:17.197Z,36.07
2018-03-04T10:32:45.556Z,35.67
2018-03-04T10:35:13.896Z,37.00
2018-03-04T10:37:42.250Z,36.67
2018-03-04T10:40:10.587Z,39.67
2018-03-04T10:42:39.016Z,38.30
2018-03-04T10:45:07.383Z,36.47
2018-03-04T10:47:35.765Z,35.60
2018-03-04T10:50:04.193Z,37.90
2018-03-04T10:52:33.298Z,37.73
2018-03-04T10:55:02.437Z,36.33
2018-03-04T10:57:30.791Z,36.13
2018-03-04T10:59:59.151Z,35.73
2018-03-04T11:02:33.117Z,35.53
2018-03-04T11:05:01.475Z,36.77
2018-03-04T11:07:29.826Z,36.37
2018-03-04T11:09:58.173Z,36.00
2018-03-04T11:12:26.612Z,35.97
2018-03-04T11:14:54.941Z,37.17
2018-03-04T11:17:24.172Z,37.73
2018-03-04T11:19:52.532Z,37.83
2018-03-04T11:22:20.942Z,36.80
2018-03-04T11:24:49.301Z,38.50
2018-03-04T11:27:17.728Z,36.20
2018-03-04T11:29:46.081Z,36.07
2018-03-04T11:32:14.422Z,36.40
2018-03-04T11:34:43.565Z,36.57
2018-03-04T11:37:11.916Z,35.87
2018-03-04T11:39:40.358Z,41.53
2018-03-04T11:42:08.797Z,37.73
2018-03-04T11:44:37.278Z,36.43
2018-03-04T11:47:05.723Z,37.97
2018-03-04T11:49:34.832Z,36.53
2018-03-04T11:52:03.965Z,35.93
2018-03-04T11:54:32.310Z,37.37
2018-03-04T11:57:00.644Z,36.93
2018-03-04T11:59:28.995Z,37.50
2018-03-04T12:01:57.332Z,36.60
2018-03-04T12:04:26.469Z,36.00
2018-03-04T12:06:54.928Z,36.70
2018-03-04T12:09:23.310Z,36.70
2018-03-04T12:11:52.426Z,37.57
2018-03-04T12:14:20.766Z,37.67
2018-03-04T12:16:49.893Z,37.97
2018-03-04T12:19:18.288Z,37.93
2018-03-04T12:21:46.656Z,36.53
2018-03-04T12:24:14.997Z,37.13
2018-03-04T12:26:43.450Z,38.07
2018-03-04T12:29:11.893Z,37.03
2018-03-04T12:31:40.271Z,39.20
2018-03-04T12:34:08.608Z,40.60
2018-03-04T12:36:36.963Z,38.37
2018-03-04T12:39:05.315Z,37.33
2018-03-04T12:41:33.677Z,37.57
2018-03-04T12:44:02.053Z,37.53
2018-03-04T12:46:30.399Z,35.80
2018-03-04T12:48:59.520Z,37.00
2018-03-04T12:51:28.697Z,37.10
2018-03-04T12:53:57.036Z,37.30
2018-03-04T12:56:25.520Z,37.73
2018-03-04T12:58:53.866Z,36.63
2018-03-04T13:01:22.214Z,36.50
2018-03-04T13:03:50.579Z,39.57
2018-03-04T13:06:19.111Z,37.63
2018-03-04T13:08:47.490Z,38.83
2018-03-04T13:11:15.840Z,39.57
2018-03-04T13:13:44.214Z,36.00
2018-03-04T13:16:12.563Z,38.63
2018-03-04T13:18:40.898Z,38.50
2018-03-04T13:21:09.246Z,38.13
2018-03-04T13:23:38.447Z,37.73
2018-03-04T13:26:06.863Z,41.87
2018-03-04T13:28:35.224Z,50.00
2018-03-04T13:31:03.614Z,39.53
2018-03-04T13:33:31.953Z,38.43
2018-03-04T13:36:00.321Z,39.57
2018-03-04T13:38:28.672Z,40.17
2018-03-04T13:40:57.041Z,39.47
2018-03-04T13:43:25.393Z,48.67
2018-03-04T13:45:53.771Z,40.83
2018-03-04T13:48:23.014Z,40.60
2018-03-04T13:50:51.377Z,40.87
2018-03-04T13:53:19.756Z,40.43
2018-03-04T13:55:48.159Z,40.67
2018-03-04T13:58:16.515Z,40.80
2018-03-04T14:00:44.889Z,41.20
2018-03-04T14:03:13.236Z,40.67
2018-03-04T14:05:42.482Z,44.57
2018-03-04T14:08:10.832Z,42.20
2018-03-04T14:10:39.240Z,42.40
2018-03-04T14:13:07.697Z,40.87
2018-03-04T14:15:36.029Z,39.50
2018-03-04T14:18:04.407Z,39.53
2018-03-04T14:20:32.758Z,40.23
2018-03-04T14:23:01.113Z,40.20
2018-03-04T14:25:29.485Z,41.03
2018-03-04T14:27:58.047Z,39.37
2018-03-04T14:30:26.393Z,37.73
2018-03-04T14:32:54.757Z,39.13
2018-03-04T14:35:23.120Z,37.80
2018-03-04T14:37:51.468Z,37.90
2018-03-04T14:40:20.585Z,36.43
2018-03-04T14:42:48.972Z,36.47
2018-03-04T14:45:17.330Z,36.40
2018-03-04T14:47:46.457Z,36.93
2018-03-04T14:50:14.805Z,35.67
2018-03-04T14:52:46.889Z,37.23
2018-03-04T14:55:15.269Z,32.43
2018-03-04T14:57:43.657Z,30.67
2018-03-04T15:00:12.146Z,32.47
2018-03-04T15:02:40.511Z,31.53
2018-03-04T15:05:08.896Z,32.07
2018-03-04T15:07:37.272Z,31.83
2018-03-04T15:10:05.630Z,32.13
2018-03-04T15:12:34.049Z,33.17
2018-03-04T15:15:02.520Z,34.37
2018-03-04T15:17:30.880Z,33.20
2018-03-04T15:19:59.297Z,33.87
2018-03-04T15:22:27.767Z,34.23
2018-03-04T15:24:56.100Z,34.13
2018-03-04T15:27:25.206Z,33.03
2018-03-04T15:29:54.449Z,33.83
2018-03-04T15:32:22.787Z,33.67
2018-03-04T15:34:51.158Z,32.60
2018-03-04T15:37:20.272Z,32.17
2018-03-04T15:39:48.709Z,31.47
2018-03-04T15:42:17.083Z,32.40
2018-03-04T15:44:45.441Z,41.40
2018-03-04T15:47:13.809Z,31.00
2018-03-04T15:49:42.165Z,30.97
2018-03-04T15:52:10.511Z,31.00
2018-03-04T15:54:38.880Z,31.33
2018-03-04T15:57:07.277Z,30.87
2018-03-04T15:59:35.636Z,28.60
2018-03-04T16:02:03.972Z,29.13
2018-03-04T16:04:32.437Z,27.67
2018-03-04T16:07:00.785Z,30.97
2018-03-04T16:09:29.229Z,29.67
2018-03-04T16:11:57.571Z,30.70
2018-03-04T16:14:26.696Z,52.90
2018-03-04T16:16:55.070Z,31.37
2018-03-04T16:19:23.529Z,28.77
2018-03-04T16:21:51.915Z,27.30
2018-03-04T16:24:20.382Z,28.90
2018-03-04T16:26:48.748Z,29.67
2018-03-04T16:29:17.873Z,28.43
2018-03-04T16:31:46.225Z,27.73
2018-03-04T16:34:14.597Z,28.40
2018-03-04T16:36:42.942Z,27.70
2018-03-04T16:39:11.340Z,29.57
2018-03-04T16:41:39.636Z,27.73
2018-03-04T16:44:08.005Z,28.43
2018-03-04T16:46:36.355Z,27.40
2018-03-04T16:49:04.794Z,27.70
2018-03-04T16:51:34.110Z,28.00
2018-03-04T16:54:03.431Z,29.23
2018-03-04T16:56:31.938Z,28.50
2018-03-04T16:59:01.175Z,27.60
2018-03-04T17:01:29.573Z,26.67
2018-03-04T17:03:57.992Z,29.20
2018-03-04T17:06:26.348Z,31.20
2018-03-04T17:08:54.707Z,28.10
2018-03-04T17:11:23.073Z,35.57
2018-03-04T17:13:51.422Z,30.17
2018-03-04T17:16:19.793Z,29.63
2018-03-04T17:18:48.156Z,30.73
2018-03-04T17:21:16.515Z,31.47
2018-03-04T17:23:44.937Z,32.67
2018-03-04T17:26:14.364Z,31.80
2018-03-04T17:28:43.524Z,30.80
2018-03-04T17:31:12.370Z,33.77
2018-03-04T17:33:41.548Z,33.47
2018-03-04T17:36:09.917Z,31.57
2018-03-04T17:38:38.264Z,33.10
2018-03-04T17:41:06.642Z,32.63
2018-03-04T17:43:35.218Z,33.20
2018-03-04T17:46:03.548Z,33.90
2018-03-04T17:48:32.680Z,34.40
2018-03-04T17:51:01.034Z,33.87
2018-03-04T17:53:30.178Z,34.67
2018-03-04T17:55:58.526Z,33.67
2018-03-04T17:58:26.876Z,32.83
2018-03-04T18:00:55.233Z,35.43
2018-03-04T18:03:23.690Z,34.53
2018-03-04T18:05:53.334Z,35.23
2018-03-04T18:08:21.675Z,34.70
2018-03-04T18:10:50.030Z,45.27
2018-03-04T18:13:18.435Z,38.83
2018-03-04T18:15:46.796Z,32.30
2018-03-04T18:18:15.159Z,32.07
2018-03-04T18:20:43.903Z,33.53
2018-03-04T18:23:12.391Z,33.13
2018-03-04T18:25:40.846Z,33.17
2018-03-04T18:28:09.212Z,33.43
2018-03-04T18:30:37.564Z,32.20
2018-03-04T18:33:06.719Z,31.03
2018-03-04T18:35:35.167Z,31.27
2018-03-04T18:38:03.512Z,30.23
2018-03-04T18:40:31.921Z,30.20
2018-03-04T18:43:00.402Z,31.70
2018-03-04T18:45:28.781Z,28.53
2018-03-04T18:47:57.154Z,29.17
2018-03-04T18:50:25.551Z,35.47
2018-03-04T18:52:53.894Z,39.03
2018-03-04T18:55:23.035Z,30.67
2018-03-04T18:57:51.413Z,31.87
2018-03-04T19:00:19.853Z,31.57
2018-03-04T19:02:48.198Z,35.87
2018-03-04T19:05:16.586Z,36.73
2018-03-04T19:07:44.976Z,38.33
2018-03-04T19:10:14.120Z,37.57
2018-03-04T19:12:42.506Z,38.20
2018-03-04T19:15:10.870Z,39.67
2018-03-04T19:17:39.309Z,37.60
2018-03-04T19:20:07.689Z,39.03
2018-03-04T19:22:36.152Z,37.23
2018-03-04T19:25:04.527Z,37.80
2018-03-04T19:27:32.885Z,36.17
2018-03-04T19:30:01.254Z,37.67
2018-03-04T19:32:29.604Z,36.43
2018-03-04T19:34:58.430Z,38.77
2018-03-04T19:37:26.915Z,34.80
2018-03-04T19:39:55.266Z,32.57
2018-03-04T19:42:23.652Z,30.40
2018-03-04T19:44:52.005Z,29.20
2018-03-04T19:47:21.208Z,30.30
2018-03-04T19:49:50.314Z,28.30
2018-03-04T19:52:19.484Z,29.43
2018-03-04T19:54:48.654Z,29.43
2018-03-04T19:57:16.996Z,27.37
2018-03-04T19:59:45.350Z,29.37
2018-03-04T20:02:13.803Z,31.83
2018-03-04T20:04:42.111Z,28.57
2018-03-04T20:07:11.240Z,29.60
2018-03-04T20:09:40.385Z,27.63
2018-03-04T20:12:08.915Z,27.27
2018-03-04T20:14:37.324Z,26.20
2018-03-04T20:17:05.660Z,27.07
2018-03-04T20:19:34.926Z,26.03
2018-03-04T20:22:03.252Z,26.00
2018-03-04T20:24:31.597Z,26.43
2018-03-04T20:26:59.964Z,26.63
2018-03-04T20:29:28.402Z,26.30
2018-03-04T20:31:57.111Z,25.70
2018-03-04T20:34:25.452Z,26.80
2018-03-04T20:36:53.852Z,27.00
2018-03-04T20:39:22.253Z,27.17
2018-03-04T20:41:50.609Z,26.53
2018-03-04T20:44:18.956Z,27.17
2018-03-04T20:46:48.241Z,27.23
2018-03-04T20:49:17.380Z,26.63
2018-03-04T20:51:45.730Z,25.40
2018-03-04T20:54:14.851Z,25.97
2018-03-04T20:56:43.195Z,27.63
2018-03-04T20:59:12.314Z,27.57
2018-03-04T21:01:45.847Z,26.27
2018-03-04T21:04:14.177Z,28.30
2018-03-04T21:06:42.548Z,28.83
2018-03-04T21:09:10.889Z,30.63
2018-03-04T21:11:41.036Z,31.40
2018-03-04T21:14:09.629Z,51.70
2018-03-04T21:16:41.503Z,38.53
2018-03-04T21:19:10.619Z,33.90
2018-03-04T21:21:39.022Z,35.43
2018-03-04T21:24:07.400Z,37.03
2018-03-04T21:26:35.765Z,36.47
2018-03-04T21:29:04.155Z,37.00
2018-03-04T21:31:32.509Z,37.20
2018-03-04T21:34:00.860Z,36.07
2018-03-04T21:36:30.014Z,36.50
2018-03-04T21:38:58.359Z,37.70
2018-03-04T21:41:26.716Z,38.20
2018-03-04T21:43:55.082Z,38.30
2018-03-04T21:46:24.348Z,37.60
2018-03-04T21:48:52.694Z,39.63
2018-03-04T21:51:21.837Z,39.30
2018-03-04T21:53:50.202Z,40.33
2018-03-04T21:56:18.742Z,39.90
2018-03-04T21:58:47.068Z,38.63
2018-03-04T22:01:15.537Z,40.17
2018-03-04T22:03:43.900Z,40.20
2018-03-04T22:06:13.024Z,39.23
2018-03-04T22:08:41.397Z,40.23
2018-03-04T22:11:09.769Z,39.77
2018-03-04T22:13:38.115Z,37.70
2018-03-04T22:16:07.208Z,37.00
2018-03-04T22:18:37.633Z,38.53
2018-03-04T22:21:05.947Z,37.47
2018-03-04T22:23:34.442Z,38.23
2018-03-04T22:26:02.763Z,37.70
2018-03-04T22:28:31.961Z,38.10
2018-03-04T22:31:00.312Z,39.13
2018-03-04T22:33:28.663Z,39.67
2018-03-04T22:35:57.014Z,38.40
2018-03-04T22:38:26.169Z,38.53
2018-03-04T22:40:54.517Z,37.67
2018-03-04T22:43:22.975Z,38.40
2018-03-04T22:45:51.376Z,38.23
2018-03-04T22:48:19.977Z,38.37
2018-03-04T22:50:48.300Z,37.77
2018-03-04T22:53:17.424Z,37.83
2018-03-04T22:55:45.792Z,39.43
2018-03-04T22:58:14.921Z,40.00
2018-03-04T23:00:43.267Z,41.23
2018-03-04T23:03:11.625Z,39.83
2018-03-04T23:05:39.954Z,40.30
2018-03-04T23:08:08.296Z,40.23
2018-03-04T23:10:36.639Z,40.00
2018-03-04T23:13:05.017Z,39.47
2018-03-04T23:15:33.437Z,40.77
2018-03-04T23:18:01.752Z,42.87
2018-03-04T23:20:30.104Z,40.77
2018-03-04T23:22:58.500Z,39.67
2018-03-04T23:25:26.847Z,38.33
2018-03-04T23:27:55.955Z,40.43
2018-03-04T23:30:25.082Z,37.93
2018-03-04T23:32:53.435Z,39.90
2018-03-04T23:35:22.615Z,39.30
2018-03-04T23:37:50.919Z,39.37
2018-03-04T23:40:19.308Z,39.90
2018-03-04T23:42:47.657Z,38.77
2018-03-04T23:45:16.797Z,40.07
2018-03-04T23:47:45.144Z,39.77
2018-03-04T23:50:13.486Z,39.73
2018-03-04T23:52:41.857Z,39.63
2018-03-04T23:55:10.416Z,37.13
2018-03-04T23:57:38.750Z,40.40
